createdAt,value
2022-08-12T00:06:16.743Z,44
2022-08-12T00:37:19.474Z,44
2022-08-12T01:10:21.922Z,43.5
2022-08-12T01:41:24.529Z,43.5
2022-08-12T02:11:27.268Z,44
2022-08-12T02:45:29.834Z,42.9
2022-08-12T03:15:32.260Z,43.5
2022-08-12T03:45:34.613Z,42.9
2022-08-12T04:16:37.162Z,42.4
2022-08-12T04:46:39.684Z,42.4
2022-08-12T05:16:41.974Z,43.5
2022-08-12T05:55:45.211Z,45.6
2022-08-12T06:25:47.609Z,47.2
2022-08-12T06:56:50.061Z,49.9
2022-08-12T07:31:53.091Z,56.4
2022-08-12T08:01:55.494Z,70.9
2022-08-12T08:32:58.108Z,75.8
2022-08-12T09:05:00.741Z,79
2022-08-12T09:34:02.000Z,80.6
2022-08-12T10:05:05.000Z,81.7
2022-08-12T10:06:05.000Z,79.5
2022-08-12T10:07:05.000Z,80.6
2022-08-12T10:08:05.000Z,79.0
2022-08-12T10:09:05.000Z,79.5
2022-08-12T11:11:10.899Z,79
2022-08-12T11:12:10.969Z,78.4
2022-08-12T11:13:11.107Z,79
2022-08-12T11:14:11.115Z,78.4
2022-08-12T11:17:11.405Z,79.5
2022-08-12T11:18:11.420Z,78.4
2022-08-12T11:19:11.533Z,79
2022-08-12T11:20:11.843Z,78.4
2022-08-12T11:23:11.915Z,79
2022-08-12T11:25:12.051Z,78.4
2022-08-12T11:26:12.273Z,79
2022-08-12T11:59:14.924Z,77.4
2022-08-12T12:38:18.274Z,78.4
2022-08-12T13:32:22.000Z,71.4
2022-08-12T14:10:25.604Z,73.6
2022-08-12T14:45:28.000Z,73.6
2022-08-12T15:18:31.253Z,74.1
2022-08-12T15:52:34.146Z,77.9
2022-08-12T16:22:36.549Z,79
2022-08-12T16:54:39.706Z,75.2
2022-08-12T17:24:41.839Z,65.5
2022-08-12T17:54:44.280Z,61.2
2022-08-12T18:25:46.886Z,56.4
2022-08-12T18:55:49.349Z,53.2
2022-08-12T19:26:52.131Z,51.5
2022-08-12T19:56:54.515Z,49.4
2022-08-12T20:26:57.075Z,47.8
2022-08-12T20:58:59.511Z,47.8
2022-08-12T21:30:02.255Z,46.2
2022-08-12T22:00:04.461Z,46.7
2022-08-12T22:30:06.862Z,45.1
2022-08-12T23:01:09.268Z,46.7
2022-08-12T23:32:11.558Z,45.1
